KVNY/VNY METAR and TAF weather

Enter ICAO airport designator
Station Type Date Time Source
KVNY METAR 2021/07/28 03:51 UTC NOAA

KVNY 280351Z 08008KT 10SM CLR 25/14 A2997 RMK AO2 SLP141 T02500144


Station Type Date Time Source
KVNY Decoded METAR 2021/07/28 03:51 UTC NOAA

VAN NUYS AIRPORT, CA, United States (KVNY) 34-13N 118-29W 245M
Jul 27, 2021 - 11:51 PM EDT / 2021.07.28 0351 UTC
Wind: from the E (080 degrees) at 9 MPH (8 KT):0
Visibility: 10 mile(s):0
Sky conditions: clear
Temperature: 77.0 F (25.0 C)
Dew Point: 57.9 F (14.4 C)
Relative Humidity: 51%
Pressure (altimeter): 29.97 in. Hg (1014 hPa)
ob: KVNY 280351Z 08008KT 10SM CLR 25/14 A2997 RMK AO2 SLP141 T02500144
cycle: 4

Station Type Date Time Source
KVNY TAF 2021/07/27 18:40 UTC NOAA

TAF KVNY 271738Z 2718/2818 00000KT P6SM SKC
FM271900 13009KT P6SM SKC
FM280300 VRB03KT P6SM SKC
FM281000 00000KT P6SM SKC

Example: see airport list